sensor_id;sensor_type;location;lat;lon;timestamp;temperature;humidity
3542;DHT22;1785;47.388;8.538;2023-10-19T00:00:14;12.80;99.90
3542;DHT22;1785;47.388;8.538;2023-10-19T00:02:49;12.90;99.90
3542;DHT22;1785;47.388;8.538;2023-10-19T00:05:17;13.20;99.90
3542;DHT22;1785;47.388;8.538;2023-10-19T00:07:43;13.40;99.90
3542;DHT22;1785;47.388;8.538;2023-10-19T00:10:10;13.20;99.90
3542;DHT22;1785;47.388;8.538;2023-10-19T00:12:41;13.30;99.90
3542;DHT22;1785;47.388;8.538;2023-10-19T00:15:10;13.60;99.90
3542;DHT22;1785;47.388;8.538;2023-10-19T00:17:37;13.40;99.90
3542;DHT22;1785;47.388;8.538;2023-10-19T00:20:06;13.10;99.90
3542;DHT22;1785;47.388;8.538;2023-10-19T00:22:54;13.10;99.90
3542;DHT22;1785;47.388;8.538;2023-10-19T00:25:22;13.20;99.90
3542;DHT22;1785;47.388;8.538;2023-10-19T00:27:49;13.00;99.90
3542;DHT22;1785;47.388;8.538;2023-10-19T00:30:16;12.80;99.90
3542;DHT22;1785;47.388;8.538;2023-10-19T00:32:44;12.60;99.90
3542;DHT22;1785;47.388;8.538;2023-10-19T00:35:11;12.70;99.90
3542;DHT22;1785;47.388;8.538;2023-10-19T00:37:53;12.60;99.90
3542;DHT22;1785;47.388;8.538;2023-10-19T00:40:22;12.50;99.90
3542;DHT22;1785;47.388;8.538;2023-10-19T00:43:03;12.80;99.90
3542;DHT22;1785;47.388;8.538;2023-10-19T00:45:35;13.20;99.90
3542;DHT22;1785;47.388;8.538;2023-10-19T00:48:07;13.40;99.90
3542;DHT22;1785;47.388;8.538;2023-10-19T00:50:34;13.50;99.90
3542;DHT22;1785;47.388;8.538;2023-10-19T00:53:01;13.60;99.90
3542;DHT22;1785;47.388;8.538;2023-10-19T00:55:32;13.80;99.90
3542;DHT22;1785;47.388;8.538;2023-10-19T00:58:00;13.80;99.90
3542;DHT22;1785;47.388;8.538;2023-10-19T01:00:36;13.80;99.90
3542;DHT22;1785;47.388;8.538;2023-10-19T01:03:10;13.80;99.90
3542;DHT22;1785;47.388;8.538;2023-10-19T01:05:39;13.80;99.90
3542;DHT22;1785;47.388;8.538;2023-10-19T01:08:11;13.90;99.90
3542;DHT22;1785;47.388;8.538;2023-10-19T01:10:45;13.80;99.90
3542;DHT22;1785;47.388;8.538;2023-10-19T01:13:12;13.50;99.90
3542;DHT22;1785;47.388;8.538;2023-10-19T01:15:38;13.30;99.90
3542;DHT22;1785;47.388;8.538;2023-10-19T01:18:05;13.30;99.90
3542;DHT22;1785;47.388;8.538;2023-10-19T01:20:32;13.40;99.90
3542;DHT22;1785;47.388;8.538;2023-10-19T01:23:16;13.30;99.90
3542;DHT22;1785;47.388;8.538;2023-10-19T01:25:48;13.30;99.90
3542;DHT22;1785;47.388;8.538;2023-10-19T01:28:16;13.50;99.90
3542;DHT22;1785;47.388;8.538;2023-10-19T01:30:44;13.50;99.90
3542;DHT22;1785;47.388;8.538;2023-10-19T01:33:10;13.50;99.90
3542;DHT22;1785;47.388;8.538;2023-10-19T01:35:39;13.60;99.90
3542;DHT22;1785;47.388;8.538;2023-10-19T01:38:20;13.60;99.90
3542;DHT22;1785;47.388;8.538;2023-10-19T01:40:46;13.30;99.90
3542;DHT22;1785;47.388;8.538;2023-10-19T01:43:14;13.40;99.90
3542;DHT22;1785;47.388;8.538;2023-10-19T01:45:46;13.60;99.90
3542;DHT22;1785;47.388;8.538;2023-10-19T01:48:12;13.20;99.90
3542;DHT22;1785;47.388;8.538;2023-10-19T01:50:38;13.10;99.90
3542;DHT22;1785;47.388;8.538;2023-10-19T01:53:04;13.20;99.90
3542;DHT22;1785;47.388;8.538;2023-10-19T01:55:39;13.30;99.90
3542;DHT22;1785;47.388;8.538;2023-10-19T01:58:05;13.50;99.90
3542;DHT22;1785;47.388;8.538;2023-10-19T02:00:32;13.70;99.90
3542;DHT22;1785;47.388;8.538;2023-10-19T02:03:06;13.60;99.90
3542;DHT22;1785;47.388;8.538;2023-10-19T02:05:33;13.30;99.90
3542;DHT22;1785;47.388;8.538;2023-10-19T02:08:05;13.30;99.90
3542;DHT22;1785;47.388;8.538;2023-10-19T02:10:33;13.20;99.90
3542;DHT22;1785;47.388;8.538;2023-10-19T02:12:59;13.10;99.90
3542;DHT22;1785;47.388;8.538;2023-10-19T02:15:25;13.40;99.90
3542;DHT22;1785;47.388;8.538;2023-10-19T02:17:52;13.60;99.90
3542;DHT22;1785;47.388;8.538;2023-10-19T02:20:21;13.90;99.90
3542;DHT22;1785;47.388;8.538;2023-10-19T02:22:50;13.70;99.90
3542;DHT22;1785;47.388;8.538;2023-10-19T02:25:17;13.60;99.90
3542;DHT22;1785;47.388;8.538;2023-10-19T02:27:45;13.80;99.90
3542;DHT22;1785;47.388;8.538;2023-10-19T02:30:13;13.10;99.90
3542;DHT22;1785;47.388;8.538;2023-10-19T02:32:39;12.90;99.90
3542;DHT22;1785;47.388;8.538;2023-10-19T02:35:05;13.00;99.90
3542;DHT22;1785;47.388;8.538;2023-10-19T02:37:31;13.20;99.90
3542;DHT22;1785;47.388;8.538;2023-10-19T02:39:57;13.40;99.90
3542;DHT22;1785;47.388;8.538;2023-10-19T02:42:23;13.60;99.90
3542;DHT22;1785;47.388;8.538;2023-10-19T02:44:49;13.70;99.90
3542;DHT22;1785;47.388;8.538;2023-10-19T02:47:16;13.90;99.90
3542;DHT22;1785;47.388;8.538;2023-10-19T02:49:43;13.70;99.90
3542;DHT22;1785;47.388;8.538;2023-10-19T02:52:10;13.60;99.90
3542;DHT22;1785;47.388;8.538;2023-10-19T02:54:39;13.50;99.90
3542;DHT22;1785;47.388;8.538;2023-10-19T02:57:05;13.10;99.90
3542;DHT22;1785;47.388;8.538;2023-10-19T02:59:32;13.20;99.90
3542;DHT22;1785;47.388;8.538;2023-10-19T03:01:59;13.50;99.90
3542;DHT22;1785;47.388;8.538;2023-10-19T03:04:27;13.60;99.90
3542;DHT22;1785;47.388;8.538;2023-10-19T03:06:54;13.20;99.90
3542;DHT22;1785;47.388;8.538;2023-10-19T03:09:21;12.90;99.90
3542;DHT22;1785;47.388;8.538;2023-10-19T03:11:54;13.00;99.90
3542;DHT22;1785;47.388;8.538;2023-10-19T03:14:24;13.20;99.90
3542;DHT22;1785;47.388;8.538;2023-10-19T03:16:51;13.20;99.90
3542;DHT22;1785;47.388;8.538;2023-10-19T03:19:17;13.30;99.90
3542;DHT22;1785;47.388;8.538;2023-10-19T03:21:43;13.50;99.90
3542;DHT22;1785;47.388;8.538;2023-10-19T03:24:10;13.30;99.90
3542;DHT22;1785;47.388;8.538;2023-10-19T03:26:38;13.10;99.90
3542;DHT22;1785;47.388;8.538;2023-10-19T03:29:08;13.10;99.90
3542;DHT22;1785;47.388;8.538;2023-10-19T03:31:38;13.30;99.90
3542;DHT22;1785;47.388;8.538;2023-10-19T03:34:08;13.50;99.90
3542;DHT22;1785;47.388;8.538;2023-10-19T03:36:35;13.60;99.90
3542;DHT22;1785;47.388;8.538;2023-10-19T03:39:02;13.50;99.90
3542;DHT22;1785;47.388;8.538;2023-10-19T03:41:37;13.40;99.90
3542;DHT22;1785;47.388;8.538;2023-10-19T03:44:04;13.50;99.90
3542;DHT22;1785;47.388;8.538;2023-10-19T03:46:30;13.60;99.90
3542;DHT22;1785;47.388;8.538;2023-10-19T03:48:57;13.70;99.90
3542;DHT22;1785;47.388;8.538;2023-10-19T03:51:28;13.30;99.90
3542;DHT22;1785;47.388;8.538;2023-10-19T03:54:06;13.50;99.90
3542;DHT22;1785;47.388;8.538;2023-10-19T03:56:46;13.40;99.90
3542;DHT22;1785;47.388;8.538;2023-10-19T03:59:13;13.40;99.90
3542;DHT22;1785;47.388;8.538;2023-10-19T04:01:41;13.30;99.90
3542;DHT22;1785;47.388;8.538;2023-10-19T04:04:09;13.30;99.90
3542;DHT22;1785;47.388;8.538;2023-10-19T04:06:35;13.40;99.90
3542;DHT22;1785;47.388;8.538;2023-10-19T04:09:01;13.30;99.90
3542;DHT22;1785;47.388;8.538;2023-10-19T04:11:30;13.40;99.90
3542;DHT22;1785;47.388;8.538;2023-10-19T04:13:58;13.60;99.90
3542;DHT22;1785;47.388;8.538;2023-10-19T04:16:29;13.60;99.90
3542;DHT22;1785;47.388;8.538;2023-10-19T04:18:55;13.40;99.90
3542;DHT22;1785;47.388;8.538;2023-10-19T04:21:21;13.30;99.90
3542;DHT22;1785;47.388;8.538;2023-10-19T04:23:47;13.30;99.90
3542;DHT22;1785;47.388;8.538;2023-10-19T04:26:13;13.50;99.90
3542;DHT22;1785;47.388;8.538;2023-10-19T04:28:41;13.60;99.90
3542;DHT22;1785;47.388;8.538;2023-10-19T04:31:15;13.80;99.90
3542;DHT22;1785;47.388;8.538;2023-10-19T04:33:42;13.90;99.90
3542;DHT22;1785;47.388;8.538;2023-10-19T04:36:11;14.00;99.90
3542;DHT22;1785;47.388;8.538;2023-10-19T04:38:37;14.00;99.90
3542;DHT22;1785;47.388;8.538;2023-10-19T04:41:05;14.10;99.90
3542;DHT22;1785;47.388;8.538;2023-10-19T04:43:33;14.20;99.90
3542;DHT22;1785;47.388;8.538;2023-10-19T04:46:00;14.00;99.90
3542;DHT22;1785;47.388;8.538;2023-10-19T04:48:33;13.70;99.90
3542;DHT22;1785;47.388;8.538;2023-10-19T04:51:01;13.40;99.90
3542;DHT22;1785;47.388;8.538;2023-10-19T04:53:27;13.50;99.90
3542;DHT22;1785;47.388;8.538;2023-10-19T04:55:53;13.70;99.90
3542;DHT22;1785;47.388;8.538;2023-10-19T04:58:19;13.80;99.90
3542;DHT22;1785;47.388;8.538;2023-10-19T05:00:45;13.90;99.90
3542;DHT22;1785;47.388;8.538;2023-10-19T05:03:12;14.00;99.90
3542;DHT22;1785;47.388;8.538;2023-10-19T05:05:43;14.10;99.90
3542;DHT22;1785;47.388;8.538;2023-10-19T05:08:10;14.20;99.90
3542;DHT22;1785;47.388;8.538;2023-10-19T05:10:36;14.30;99.90
3542;DHT22;1785;47.388;8.538;2023-10-19T05:13:02;14.30;99.90
3542;DHT22;1785;47.388;8.538;2023-10-19T05:15:29;14.30;99.90
3542;DHT22;1785;47.388;8.538;2023-10-19T05:17:55;14.40;99.90
3542;DHT22;1785;47.388;8.538;2023-10-19T05:20:22;14.40;99.90
3542;DHT22;1785;47.388;8.538;2023-10-19T05:22:49;14.40;99.90
3542;DHT22;1785;47.388;8.538;2023-10-19T05:25:15;14.40;99.90
3542;DHT22;1785;47.388;8.538;2023-10-19T05:27:41;14.20;99.90
3542;DHT22;1785;47.388;8.538;2023-10-19T05:30:08;14.10;99.90
3542;DHT22;1785;47.388;8.538;2023-10-19T05:32:35;14.00;99.90
3542;DHT22;1785;47.388;8.538;2023-10-19T05:35:01;14.00;99.90
3542;DHT22;1785;47.388;8.538;2023-10-19T05:37:31;14.30;99.90
3542;DHT22;1785;47.388;8.538;2023-10-19T05:39:57;14.40;99.90
3542;DHT22;1785;47.388;8.538;2023-10-19T05:42:24;14.50;99.90
3542;DHT22;1785;47.388;8.538;2023-10-19T05:44:51;14.50;99.90
3542;DHT22;1785;47.388;8.538;2023-10-19T05:47:18;14.40;99.90
3542;DHT22;1785;47.388;8.538;2023-10-19T05:49:44;14.50;99.90
3542;DHT22;1785;47.388;8.538;2023-10-19T05:52:10;14.50;99.90
3542;DHT22;1785;47.388;8.538;2023-10-19T05:54:37;14.50;99.90
3542;DHT22;1785;47.388;8.538;2023-10-19T05:57:03;14.50;99.90
3542;DHT22;1785;47.388;8.538;2023-10-19T05:59:33;14.60;99.90
3542;DHT22;1785;47.388;8.538;2023-10-19T06:01:59;14.50;99.90
3542;DHT22;1785;47.388;8.538;2023-10-19T06:04:25;14.50;99.90
3542;DHT22;1785;47.388;8.538;2023-10-19T06:06:52;14.50;99.90
3542;DHT22;1785;47.388;8.538;2023-10-19T06:09:18;14.50;99.90
3542;DHT22;1785;47.388;8.538;2023-10-19T06:11:45;14.40;99.90
3542;DHT22;1785;47.388;8.538;2023-10-19T06:14:11;14.30;99.90
3542;DHT22;1785;47.388;8.538;2023-10-19T06:16:37;14.30;99.90
3542;DHT22;1785;47.388;8.538;2023-10-19T06:19:04;14.30;99.90
3542;DHT22;1785;47.388;8.538;2023-10-19T06:21:30;14.50;99.90
3542;DHT22;1785;47.388;8.538;2023-10-19T06:23:58;14.60;99.90
3542;DHT22;1785;47.388;8.538;2023-10-19T06:26:24;14.70;99.90
3542;DHT22;1785;47.388;8.538;2023-10-19T06:28:51;14.90;99.90
3542;DHT22;1785;47.388;8.538;2023-10-19T06:31:22;14.90;99.90
3542;DHT22;1785;47.388;8.538;2023-10-19T06:33:48;14.90;99.90
3542;DHT22;1785;47.388;8.538;2023-10-19T06:36:14;15.00;99.90
3542;DHT22;1785;47.388;8.538;2023-10-19T06:38:40;15.00;99.90
3542;DHT22;1785;47.388;8.538;2023-10-19T06:41:11;15.00;99.90
3542;DHT22;1785;47.388;8.538;2023-10-19T06:43:37;15.00;99.90
3542;DHT22;1785;47.388;8.538;2023-10-19T06:46:04;15.00;99.90
3542;DHT22;1785;47.388;8.538;2023-10-19T06:48:31;15.10;99.90
3542;DHT22;1785;47.388;8.538;2023-10-19T06:50:57;15.10;99.90
3542;DHT22;1785;47.388;8.538;2023-10-19T06:53:23;15.10;99.90
3542;DHT22;1785;47.388;8.538;2023-10-19T06:55:50;15.20;99.90
3542;DHT22;1785;47.388;8.538;2023-10-19T06:58:19;15.20;99.90
3542;DHT22;1785;47.388;8.538;2023-10-19T07:00:45;15.30;99.90
3542;DHT22;1785;47.388;8.538;2023-10-19T07:03:22;15.20;99.90
3542;DHT22;1785;47.388;8.538;2023-10-19T07:05:48;15.10;99.90
3542;DHT22;1785;47.388;8.538;2023-10-19T07:08:15;15.10;99.90
3542;DHT22;1785;47.388;8.538;2023-10-19T07:10:41;15.10;99.90
3542;DHT22;1785;47.388;8.538;2023-10-19T07:13:08;15.20;99.90
3542;DHT22;1785;47.388;8.538;2023-10-19T07:15:34;15.30;99.90
3542;DHT22;1785;47.388;8.538;2023-10-19T07:18:00;15.40;99.90
3542;DHT22;1785;47.388;8.538;2023-10-19T07:20:27;15.20;99.90
3542;DHT22;1785;47.388;8.538;2023-10-19T07:22:58;15.00;99.90
3542;DHT22;1785;47.388;8.538;2023-10-19T07:25:28;14.70;99.90
3542;DHT22;1785;47.388;8.538;2023-10-19T07:27:54;14.60;99.90
3542;DHT22;1785;47.388;8.538;2023-10-19T07:30:21;14.60;99.90
3542;DHT22;1785;47.388;8.538;2023-10-19T07:32:51;14.50;99.90
3542;DHT22;1785;47.388;8.538;2023-10-19T07:35:20;14.60;99.90
3542;DHT22;1785;47.388;8.538;2023-10-19T07:37:48;14.60;99.90
3542;DHT22;1785;47.388;8.538;2023-10-19T07:40:15;14.60;99.90
3542;DHT22;1785;47.388;8.538;2023-10-19T07:42:43;14.70;99.90
3542;DHT22;1785;47.388;8.538;2023-10-19T07:45:09;14.60;99.90
3542;DHT22;1785;47.388;8.538;2023-10-19T07:47:37;14.40;99.90
3542;DHT22;1785;47.388;8.538;2023-10-19T07:50:06;14.30;99.90
3542;DHT22;1785;47.388;8.538;2023-10-19T07:52:37;14.30;99.90
3542;DHT22;1785;47.388;8.538;2023-10-19T07:55:06;14.20;99.90
3542;DHT22;1785;47.388;8.538;2023-10-19T07:57:32;14.30;99.90
3542;DHT22;1785;47.388;8.538;2023-10-19T07:59:59;14.50;99.90
3542;DHT22;1785;47.388;8.538;2023-10-19T08:02:25;14.30;99.90
3542;DHT22;1785;47.388;8.538;2023-10-19T08:04:52;14.30;99.90
3542;DHT22;1785;47.388;8.538;2023-10-19T08:07:18;14.50;99.90
3542;DHT22;1785;47.388;8.538;2023-10-19T08:09:44;14.80;99.90
3542;DHT22;1785;47.388;8.538;2023-10-19T08:12:11;14.80;99.90
3542;DHT22;1785;47.388;8.538;2023-10-19T08:14:39;14.80;99.90
3542;DHT22;1785;47.388;8.538;2023-10-19T08:17:05;14.90;99.90
3542;DHT22;1785;47.388;8.538;2023-10-19T08:19:34;14.80;99.90
3542;DHT22;1785;47.388;8.538;2023-10-19T08:22:01;14.90;99.90
3542;DHT22;1785;47.388;8.538;2023-10-19T08:24:27;14.90;99.90
3542;DHT22;1785;47.388;8.538;2023-10-19T08:26:55;14.70;99.90
3542;DHT22;1785;47.388;8.538;2023-10-19T08:29:22;14.60;99.90
3542;DHT22;1785;47.388;8.538;2023-10-19T08:31:49;14.40;99.90
3542;DHT22;1785;47.388;8.538;2023-10-19T08:34:15;14.40;99.90
3542;DHT22;1785;47.388;8.538;2023-10-19T08:36:43;14.40;99.90
3542;DHT22;1785;47.388;8.538;2023-10-19T08:39:09;14.60;99.90
3542;DHT22;1785;47.388;8.538;2023-10-19T08:41:39;14.80;99.90
3542;DHT22;1785;47.388;8.538;2023-10-19T08:44:07;14.90;99.90
3542;DHT22;1785;47.388;8.538;2023-10-19T08:46:38;14.90;99.90
3542;DHT22;1785;47.388;8.538;2023-10-19T08:49:06;15.10;99.90
3542;DHT22;1785;47.388;8.538;2023-10-19T08:51:36;15.20;99.90
3542;DHT22;1785;47.388;8.538;2023-10-19T08:54:04;15.60;99.90
3542;DHT22;1785;47.388;8.538;2023-10-19T08:56:31;15.40;99.90
3542;DHT22;1785;47.388;8.538;2023-10-19T08:58:58;15.00;99.90
3542;DHT22;1785;47.388;8.538;2023-10-19T09:01:27;14.90;99.90
3542;DHT22;1785;47.388;8.538;2023-10-19T09:03:57;15.00;99.90
3542;DHT22;1785;47.388;8.538;2023-10-19T09:06:23;15.00;99.90
3542;DHT22;1785;47.388;8.538;2023-10-19T09:08:49;15.20;99.90
3542;DHT22;1785;47.388;8.538;2023-10-19T09:11:15;15.40;99.90
3542;DHT22;1785;47.388;8.538;2023-10-19T09:13:45;15.50;99.90
3542;DHT22;1785;47.388;8.538;2023-10-19T09:16:13;15.80;99.90
3542;DHT22;1785;47.388;8.538;2023-10-19T09:18:39;16.00;99.90
3542;DHT22;1785;47.388;8.538;2023-10-19T09:21:07;16.10;99.90
3542;DHT22;1785;47.388;8.538;2023-10-19T09:23:37;16.20;99.90
3542;DHT22;1785;47.388;8.538;2023-10-19T09:26:04;16.20;99.90
3542;DHT22;1785;47.388;8.538;2023-10-19T09:28:31;16.30;99.90
3542;DHT22;1785;47.388;8.538;2023-10-19T09:31:00;16.20;99.90
3542;DHT22;1785;47.388;8.538;2023-10-19T09:33:27;16.20;99.90
3542;DHT22;1785;47.388;8.538;2023-10-19T09:35:53;16.10;99.90
3542;DHT22;1785;47.388;8.538;2023-10-19T09:38:22;15.70;99.90
3542;DHT22;1785;47.388;8.538;2023-10-19T09:40:50;15.70;99.90
3542;DHT22;1785;47.388;8.538;2023-10-19T09:43:24;15.80;99.90
3542;DHT22;1785;47.388;8.538;2023-10-19T09:45:53;15.80;99.90
3542;DHT22;1785;47.388;8.538;2023-10-19T09:48:24;15.80;99.90
3542;DHT22;1785;47.388;8.538;2023-10-19T09:50:53;15.90;99.90
3542;DHT22;1785;47.388;8.538;2023-10-19T09:53:22;15.90;99.90
3542;DHT22;1785;47.388;8.538;2023-10-19T09:55:50;15.90;99.90
3542;DHT22;1785;47.388;8.538;2023-10-19T09:58:20;16.10;99.90
3542;DHT22;1785;47.388;8.538;2023-10-19T10:00:49;16.40;99.90
3542;DHT22;1785;47.388;8.538;2023-10-19T10:03:44;16.50;99.90
3542;DHT22;1785;47.388;8.538;2023-10-19T10:06:10;16.80;99.90
3542;DHT22;1785;47.388;8.538;2023-10-19T10:08:40;16.60;99.90
3542;DHT22;1785;47.388;8.538;2023-10-19T10:11:20;16.60;99.90
3542;DHT22;1785;47.388;8.538;2023-10-19T10:13:47;17.00;99.90
3542;DHT22;1785;47.388;8.538;2023-10-19T10:16:17;17.30;99.90
3542;DHT22;1785;47.388;8.538;2023-10-19T10:18:46;17.30;99.90
3542;DHT22;1785;47.388;8.538;2023-10-19T10:21:15;17.50;99.90
3542;DHT22;1785;47.388;8.538;2023-10-19T10:23:43;17.70;99.90
3542;DHT22;1785;47.388;8.538;2023-10-19T10:26:11;17.80;99.90
3542;DHT22;1785;47.388;8.538;2023-10-19T10:28:38;17.90;99.90
3542;DHT22;1785;47.388;8.538;2023-10-19T10:31:11;17.80;99.90
3542;DHT22;1785;47.388;8.538;2023-10-19T10:33:41;17.70;99.90
3542;DHT22;1785;47.388;8.538;2023-10-19T10:36:07;17.80;99.90
3542;DHT22;1785;47.388;8.538;2023-10-19T10:38:34;17.80;99.90
3542;DHT22;1785;47.388;8.538;2023-10-19T10:41:01;17.70;99.90
3542;DHT22;1785;47.388;8.538;2023-10-19T10:43:28;17.90;99.90
3542;DHT22;1785;47.388;8.538;2023-10-19T10:46:03;18.20;99.90
3542;DHT22;1785;47.388;8.538;2023-10-19T10:48:29;18.40;99.90
3542;DHT22;1785;47.388;8.538;2023-10-19T10:50:55;18.60;99.90
3542;DHT22;1785;47.388;8.538;2023-10-19T10:53:23;18.70;99.90
3542;DHT22;1785;47.388;8.538;2023-10-19T10:55:52;18.80;99.90
3542;DHT22;1785;47.388;8.538;2023-10-19T10:58:20;18.80;99.90
3542;DHT22;1785;47.388;8.538;2023-10-19T11:00:46;18.70;99.90
3542;DHT22;1785;47.388;8.538;2023-10-19T11:03:15;18.70;99.90
3542;DHT22;1785;47.388;8.538;2023-10-19T11:05:41;18.80;99.90
3542;DHT22;1785;47.388;8.538;2023-10-19T11:08:12;18.80;99.90
3542;DHT22;1785;47.388;8.538;2023-10-19T11:10:40;18.70;99.90
3542;DHT22;1785;47.388;8.538;2023-10-19T11:13:09;18.50;99.90
3542;DHT22;1785;47.388;8.538;2023-10-19T11:15:37;18.40;99.90
3542;DHT22;1785;47.388;8.538;2023-10-19T11:18:04;18.50;99.90
3542;DHT22;1785;47.388;8.538;2023-10-19T11:20:30;18.60;99.90
3542;DHT22;1785;47.388;8.538;2023-10-19T11:22:57;18.70;99.90
3542;DHT22;1785;47.388;8.538;2023-10-19T11:25:26;18.40;99.90
3542;DHT22;1785;47.388;8.538;2023-10-19T11:27:54;18.20;99.90
3542;DHT22;1785;47.388;8.538;2023-10-19T11:30:23;18.40;99.90
3542;DHT22;1785;47.388;8.538;2023-10-19T11:32:51;18.50;99.90
3542;DHT22;1785;47.388;8.538;2023-10-19T11:35:19;18.60;99.90
3542;DHT22;1785;47.388;8.538;2023-10-19T11:37:49;18.40;99.90
3542;DHT22;1785;47.388;8.538;2023-10-19T11:40:15;18.40;99.90
3542;DHT22;1785;47.388;8.538;2023-10-19T11:42:41;18.10;99.90
3542;DHT22;1785;47.388;8.538;2023-10-19T11:45:08;18.40;99.90
3542;DHT22;1785;47.388;8.538;2023-10-19T11:47:34;18.80;99.90
3542;DHT22;1785;47.388;8.538;2023-10-19T11:50:01;18.80;99.90
3542;DHT22;1785;47.388;8.538;2023-10-19T11:52:27;18.70;99.90
3542;DHT22;1785;47.388;8.538;2023-10-19T11:54:55;18.80;99.90
3542;DHT22;1785;47.388;8.538;2023-10-19T11:57:21;18.70;99.90
3542;DHT22;1785;47.388;8.538;2023-10-19T11:59:47;18.50;99.90
3542;DHT22;1785;47.388;8.538;2023-10-19T12:02:18;18.60;99.90
3542;DHT22;1785;47.388;8.538;2023-10-19T12:04:44;18.50;99.90
3542;DHT22;1785;47.388;8.538;2023-10-19T12:07:11;18.70;99.90
3542;DHT22;1785;47.388;8.538;2023-10-19T12:09:37;18.80;99.90
3542;DHT22;1785;47.388;8.538;2023-10-19T12:12:06;18.40;99.90
3542;DHT22;1785;47.388;8.538;2023-10-19T12:14:32;18.60;99.90
3542;DHT22;1785;47.388;8.538;2023-10-19T12:16:59;18.60;99.90
3542;DHT22;1785;47.388;8.538;2023-10-19T12:19:27;18.80;99.90
3542;DHT22;1785;47.388;8.538;2023-10-19T12:21:55;19.00;99.90
3542;DHT22;1785;47.388;8.538;2023-10-19T12:24:22;19.10;99.90
3542;DHT22;1785;47.388;8.538;2023-10-19T12:26:48;19.00;99.90
3542;DHT22;1785;47.388;8.538;2023-10-19T12:29:23;18.90;99.90
3542;DHT22;1785;47.388;8.538;2023-10-19T12:31:51;18.80;99.90
3542;DHT22;1785;47.388;8.538;2023-10-19T12:34:17;18.70;99.90
3542;DHT22;1785;47.388;8.538;2023-10-19T12:36:43;18.90;99.90
3542;DHT22;1785;47.388;8.538;2023-10-19T12:39:12;19.00;99.90
3542;DHT22;1785;47.388;8.538;2023-10-19T12:42:00;19.20;99.90
3542;DHT22;1785;47.388;8.538;2023-10-19T12:44:27;19.20;99.90
3542;DHT22;1785;47.388;8.538;2023-10-19T12:46:54;19.10;99.90
3542;DHT22;1785;47.388;8.538;2023-10-19T12:49:21;19.00;99.90
3542;DHT22;1785;47.388;8.538;2023-10-19T12:51:51;18.80;99.90
3542;DHT22;1785;47.388;8.538;2023-10-19T12:54:18;18.90;99.90
3542;DHT22;1785;47.388;8.538;2023-10-19T12:56:44;18.80;99.90
3542;DHT22;1785;47.388;8.538;2023-10-19T12:59:11;19.00;99.90
3542;DHT22;1785;47.388;8.538;2023-10-19T13:01:37;19.20;99.90
3542;DHT22;1785;47.388;8.538;2023-10-19T13:04:03;19.10;99.90
3542;DHT22;1785;47.388;8.538;2023-10-19T13:06:39;19.10;99.90
3542;DHT22;1785;47.388;8.538;2023-10-19T13:09:05;18.80;99.90
3542;DHT22;1785;47.388;8.538;2023-10-19T13:11:34;18.90;99.90
3542;DHT22;1785;47.388;8.538;2023-10-19T13:14:00;19.20;99.90
3542;DHT22;1785;47.388;8.538;2023-10-19T13:16:27;19.20;99.90
3542;DHT22;1785;47.388;8.538;2023-10-19T13:18:53;19.30;99.90
3542;DHT22;1785;47.388;8.538;2023-10-19T13:21:19;19.50;99.90
3542;DHT22;1785;47.388;8.538;2023-10-19T13:23:51;19.20;99.90
3542;DHT22;1785;47.388;8.538;2023-10-19T13:26:19;19.10;99.90
3542;DHT22;1785;47.388;8.538;2023-10-19T13:28:45;18.80;99.90
3542;DHT22;1785;47.388;8.538;2023-10-19T13:31:12;18.90;99.90
3542;DHT22;1785;47.388;8.538;2023-10-19T13:33:40;19.00;99.90
3542;DHT22;1785;47.388;8.538;2023-10-19T13:36:07;19.00;99.90
3542;DHT22;1785;47.388;8.538;2023-10-19T13:38:34;19.00;99.90
3542;DHT22;1785;47.388;8.538;2023-10-19T13:41:03;19.20;99.90
3542;DHT22;1785;47.388;8.538;2023-10-19T13:43:33;19.20;99.90
3542;DHT22;1785;47.388;8.538;2023-10-19T13:45:59;19.50;99.90
3542;DHT22;1785;47.388;8.538;2023-10-19T13:48:26;19.60;99.90
3542;DHT22;1785;47.388;8.538;2023-10-19T13:50:53;19.60;99.90
3542;DHT22;1785;47.388;8.538;2023-10-19T13:53:26;19.70;99.90
3542;DHT22;1785;47.388;8.538;2023-10-19T13:55:52;19.80;99.90
3542;DHT22;1785;47.388;8.538;2023-10-19T13:58:18;19.80;99.90
3542;DHT22;1785;47.388;8.538;2023-10-19T14:00:44;19.80;99.90
3542;DHT22;1785;47.388;8.538;2023-10-19T14:03:11;19.80;99.90
3542;DHT22;1785;47.388;8.538;2023-10-19T14:05:40;19.90;99.90
3542;DHT22;1785;47.388;8.538;2023-10-19T14:08:09;20.10;99.90
3542;DHT22;1785;47.388;8.538;2023-10-19T14:10:35;20.10;99.90
3542;DHT22;1785;47.388;8.538;2023-10-19T14:13:01;20.20;99.90
3542;DHT22;1785;47.388;8.538;2023-10-19T14:15:27;20.10;99.90
3542;DHT22;1785;47.388;8.538;2023-10-19T14:17:55;20.10;99.90
3542;DHT22;1785;47.388;8.538;2023-10-19T14:20:24;20.10;99.90
3542;DHT22;1785;47.388;8.538;2023-10-19T14:22:50;20.20;99.90
3542;DHT22;1785;47.388;8.538;2023-10-19T14:25:20;20.30;99.90
3542;DHT22;1785;47.388;8.538;2023-10-19T14:27:48;20.10;99.90
3542;DHT22;1785;47.388;8.538;2023-10-19T14:30:15;20.00;99.90
3542;DHT22;1785;47.388;8.538;2023-10-19T14:32:43;20.00;99.90
3542;DHT22;1785;47.388;8.538;2023-10-19T14:35:11;20.10;99.90
3542;DHT22;1785;47.388;8.538;2023-10-19T14:37:39;20.00;99.90
3542;DHT22;1785;47.388;8.538;2023-10-19T14:40:07;20.20;99.90
3542;DHT22;1785;47.388;8.538;2023-10-19T14:42:36;20.10;99.90
3542;DHT22;1785;47.388;8.538;2023-10-19T14:45:04;20.10;99.90
3542;DHT22;1785;47.388;8.538;2023-10-19T14:47:30;20.00;99.90
3542;DHT22;1785;47.388;8.538;2023-10-19T14:49:56;20.20;99.90
3542;DHT22;1785;47.388;8.538;2023-10-19T14:52:22;20.40;99.90
3542;DHT22;1785;47.388;8.538;2023-10-19T14:54:49;20.30;99.90
3542;DHT22;1785;47.388;8.538;2023-10-19T14:57:16;20.10;99.90
3542;DHT22;1785;47.388;8.538;2023-10-19T14:59:48;20.20;99.90
3542;DHT22;1785;47.388;8.538;2023-10-19T15:02:15;20.30;99.90
3542;DHT22;1785;47.388;8.538;2023-10-19T15:04:45;20.30;99.90
3542;DHT22;1785;47.388;8.538;2023-10-19T15:07:11;20.20;99.90
3542;DHT22;1785;47.388;8.538;2023-10-19T15:09:38;20.20;99.90
3542;DHT22;1785;47.388;8.538;2023-10-19T15:12:04;20.20;99.90
3542;DHT22;1785;47.388;8.538;2023-10-19T15:14:32;20.30;99.90
3542;DHT22;1785;47.388;8.538;2023-10-19T15:16:59;20.30;99.90
3542;DHT22;1785;47.388;8.538;2023-10-19T15:19:25;20.30;99.90
3542;DHT22;1785;47.388;8.538;2023-10-19T15:21:51;20.30;99.90
3542;DHT22;1785;47.388;8.538;2023-10-19T15:24:17;20.30;99.90
3542;DHT22;1785;47.388;8.538;2023-10-19T15:26:44;20.30;99.90
3542;DHT22;1785;47.388;8.538;2023-10-19T15:29:10;20.10;99.90
3542;DHT22;1785;47.388;8.538;2023-10-19T15:31:36;20.20;99.90
3542;DHT22;1785;47.388;8.538;2023-10-19T15:34:02;20.20;99.90
3542;DHT22;1785;47.388;8.538;2023-10-19T15:36:28;19.90;99.90
3542;DHT22;1785;47.388;8.538;2023-10-19T15:38:54;19.90;99.90
3542;DHT22;1785;47.388;8.538;2023-10-19T15:41:20;20.00;99.90
3542;DHT22;1785;47.388;8.538;2023-10-19T15:43:46;19.90;99.90
3542;DHT22;1785;47.388;8.538;2023-10-19T15:46:12;19.80;99.90
3542;DHT22;1785;47.388;8.538;2023-10-19T15:48:39;19.70;99.90
3542;DHT22;1785;47.388;8.538;2023-10-19T15:51:06;19.70;99.90
3542;DHT22;1785;47.388;8.538;2023-10-19T15:53:32;19.70;99.90
3542;DHT22;1785;47.388;8.538;2023-10-19T15:55:59;19.60;99.90
3542;DHT22;1785;47.388;8.538;2023-10-19T15:58:25;19.70;99.90
3542;DHT22;1785;47.388;8.538;2023-10-19T16:00:51;19.70;99.90
3542;DHT22;1785;47.388;8.538;2023-10-19T16:03:17;19.80;99.90
3542;DHT22;1785;47.388;8.538;2023-10-19T16:05:43;19.90;99.90